San Vicente la Barquera

latitud = 43° 23' 40''N | longitud = 004° 23' 27''W
40 metros sobre el nivel del mar | datos mensuales

Fecha, hora, temperatura, viento dirección y velocidad, humedad y presión.

  • 25-09-2017 00:00:00 | 18.10°C | Sudeste |16.00 km/h | 89.00% | 1015.30 hPa
  • 24-09-2017 23:00:00 | 18.60°C | Oeste |18.00 km/h | 92.00% | 1017.30 hPa
  • 24-09-2017 22:00:00 | 18.20°C | Oeste |8.00 km/h | 92.00% | 1016.10 hPa
  • 24-09-2017 21:00:00 | 18.50°C | Oeste |6.00 km/h | 92.00% | 1014.90 hPa
  • 24-09-2017 20:00:00 | 19.10°C | Calma |0.00 km/h | 91.00% | 1014.10 hPa
  • 24-09-2017 19:00:00 | 19.50°C | Calma |0.00 km/h | 90.00% | 1013.80 hPa
  • 24-09-2017 18:00:00 | 19.60°C | Norte |4.00 km/h | 89.00% | 1013.60 hPa
  • 24-09-2017 17:00:00 | 19.90°C | Nordeste |6.00 km/h | 88.00% | 1013.60 hPa
  • 24-09-2017 16:00:00 | 20.50°C | Nordeste |6.00 km/h | 86.00% | 1013.40 hPa
  • 24-09-2017 15:00:00 | 20.30°C | Nordeste |8.00 km/h | 85.00% | 1013.30 hPa
  • 24-09-2017 14:00:00 | 20.00°C | Nordeste |13.00 km/h | 84.00% | 1013.30 hPa
  • 24-09-2017 13:00:00 | 19.00°C | Nordeste |3.00 km/h | 84.00% | 1014.20 hPa
  • 24-09-2017 12:00:00 | 18.60°C | Norte |4.00 km/h | 81.00% | 1014.50 hPa
  • 24-09-2017 11:00:00 | 18.90°C | Sudeste |4.00 km/h | 78.00% | 1014.10 hPa
  • 24-09-2017 10:00:00 | 15.30°C | Sudoeste |8.00 km/h | 88.00% | 1014.30 hPa
  • 24-09-2017 09:00:00 | 13.20°C | Sudoeste |12.00 km/h | 92.00% | 1014.00 hPa
  • 24-09-2017 08:00:00 | 12.90°C | Sudoeste |12.00 km/h | 92.00% | 1013.80 hPa
  • 24-09-2017 07:00:00 | 12.80°C | Sudoeste |13.00 km/h | 93.00% | 1013.40 hPa
  • 24-09-2017 06:00:00 | 13.20°C | Sudoeste |14.00 km/h | 93.00% | 1013.60 hPa
  • 24-09-2017 05:00:00 | 13.60°C | Sudoeste |13.00 km/h | 93.00% | 1013.80 hPa
  • 24-09-2017 04:00:00 | 13.90°C | Sur |13.00 km/h | 93.00% | 1014.20 hPa
  • 24-09-2017 03:00:00 | 14.50°C | Sur |11.00 km/h | 92.00% | 1014.90 hPa
  • 24-09-2017 02:00:00 | 15.10°C | Sudoeste |11.00 km/h | 92.00% | 1015.10 hPa
  • 24-09-2017 01:00:00 | 15.70°C | Sudoeste |12.00 km/h | 92.00% | 1015.20 hPa